Bookmark and Share
Track history (hours):
 

Hsc Superjet

Last reported at 2014-Apr-24 15:30 UTC. Time now 2014-Apr-24 22:19 UTC.
Position N 40°39' E 014°17'.

Length 44 m; draft 1.4 m.

Type: High speed craft. MMSI: 247540000.

NotesDate/timePositionNaut miles runAvg speedWind from/ knotsBaromVisibWave heightAir tempDewpointWater temp
2014-Apr-24 15:30N 40°39' E 014°17'4 4.0
2014-Apr-24 14:32N 40°36' E 014°18'3 3.2
2014-Apr-24 13:31N 40°33' E 014°14'8 7.9
2014-Apr-24 12:33N 40°38' E 014°23'7 3.4
2014-Apr-24 10:32N 40°34' E 014°15'1613.3
2014-Apr-24 09:19N 40°50' E 014°16'1718.4
2014-Apr-24 08:25N 40°33' E 014°15'16 0.9
2014-Apr-23 15:12N 40°49' E 014°17'1624.7
2014-Apr-23 14:34N 40°33' E 014°15'1 0.5
2014-Apr-23 13:33N 40°34' E 014°15'1 0.2
2014-Apr-23 10:27N 40°33' E 014°14'1613.6
2014-Apr-23 09:17N 40°49' E 014°17'1617.6
2014-Apr-23 08:22N 40°34' E 014°15'16 1.0
2014-Apr-22 15:22N 40°50' E 014°17'1717.3
2014-Apr-22 14:25N 40°33' E 014°14'10 2.6
2014-Apr-22 10:34N 40°43' E 014°16'10 9.9
2014-Apr-22 09:33N 40°33' E 014°14'0 0.0
2014-Apr-22 08:23N 40°33' E 014°14'16 0.9
2014-Apr-21 15:32N 40°49' E 014°17'1615.9
2014-Apr-21 14:32N 40°33' E 014°14'0 0.0
2014-Apr-21 13:32N 40°33' E 014°14'16 7.4
2014-Apr-21 11:21N 40°49' E 014°17'1619.4
2014-Apr-21 10:32N 40°33' E 014°14'0 0.0
2014-Apr-21 09:33N 40°33' E 014°14'0 0.0
2014-Apr-21 08:33N 40°33' E 014°14'8 0.5
2014-Apr-20 15:32N 40°41' E 014°16'8 7.6
2014-Apr-20 14:29N 40°33' E 014°14'17 8.4
2014-Apr-20 12:29N 40°50' E 014°16'1718.1
2014-Apr-20 11:33N 40°33' E 014°14'0 0.5
2014-Apr-20 10:33N 40°34' E 014°15'16 0.8
2014-Apr-19 15:19N 40°49' E 014°17'1621.3
2014-Apr-19 14:33N 40°33' E 014°15'1 1.1
2014-Apr-19 13:33N 40°34' E 014°16'12 5.8
2014-Apr-19 11:25N 40°47' E 014°18'1315.1
2014-Apr-19 10:33N 40°34' E 014°15'15 0.3
2014-Apr-17 15:19N 40°49' E 014°17'1518.3
2014-Apr-17 14:29N 40°33' E 014°14'13 5.7
2014-Apr-17 12:14N 40°46' E 014°17'1316.5
2014-Apr-17 11:28N 40°33' E 014°14'0 0.0
2014-Apr-17 10:29N 40°33' E 014°14'1513.1
2014-Apr-17 09:21N 40°48' E 014°17'1516.0
2014-Apr-17 08:26N 40°33' E 014°14'16 1.0
2014-Apr-16 15:21N 40°50' E 014°17'1620.3
2014-Apr-16 14:33N 40°33' E 014°14'15 7.0
2014-Apr-16 12:23N 40°48' E 014°17'1512.4
2014-Apr-16 11:10N 40°33' E 014°14'0 0.1
2014-Apr-16 10:33N 40°33' E 014°14'9 0.5
2014-Apr-15 15:33N 40°43' E 014°16'8 7.5
2014-Apr-15 14:31N 40°35' E 014°18'2 0.5
2014-Apr-15 10:31N 40°34' E 014°15'1 0.2
2014-Apr-15 06:34N 40°33' E 014°15'  

Dump ship's entire track history

sailing weather and tide predictions

Hsc Superjet — IINO — position and weather